Time;durP1;ratioP1;P1;durP2;ratioP2;P2;SDS_P1;SDS_P2;PMS_P1;PMS_P2;Temp;Humidity;BMP_temperature;BMP_pressure;BME280_temperature;BME280_humidity;BME280_pressure;Samples;Min_cycle;Max_cycle;Signal;HPM_P1;HPM_P2
2022/06/21 00:00:08;;;;;;;2.60;1.20;;;;;;;15.47;60.08;99514.66;342227;28;975;-69
2022/06/21 00:00:24;;;;;;;2.58;1.30;;;;;;;15.45;59.83;99516.53;343856;28;1292;-69
2022/06/21 00:00:36;;;;;;;1.80;1.42;;;;;;;15.44;60.30;99514.84;342843;28;1908;-69
2022/06/21 00:00:49;;;;;;;1.90;1.40;;;;;;;15.44;60.12;99514.84;343894;28;1747;-69
2022/06/21 00:01:01;;;;;;;3.50;1.40;;;;;;;15.45;59.76;99516.53;343778;28;1611;-70
2022/06/21 00:01:16;;;;;;;3.33;1.38;;;;;;;15.47;60.08;99508.59;343315;28;1679;-70
2022/06/21 00:01:31;;;;;;;2.40;1.23;;;;;;;15.48;60.29;99510.31;343080;28;1361;-69
2022/06/21 00:01:43;;;;;;;2.45;1.20;;;;;;;15.48;59.84;99513.75;342596;28;1051;-69
2022/06/21 00:01:55;;;;;;;2.00;1.30;;;;;;;15.47;59.74;99509.44;342583;28;1083;-69
2022/06/21 00:02:09;;;;;;;1.50;1.40;;;;;;;15.46;59.77;99510.38;342880;28;2163;-69
2022/06/21 00:02:21;;;;;;;2.72;1.45;;;;;;;15.44;60.44;99514.84;343652;28;1630;-69
2022/06/21 00:02:34;;;;;;;3.88;1.48;;;;;;;15.40;60.68;99515.94;342833;28;1720;-69
2022/06/21 00:02:48;;;;;;;2.65;1.40;;;;;;;15.40;60.85;99505.47;343911;28;1706;-69
2022/06/21 00:03:05;;;;;;;3.05;1.33;;;;;;;15.35;60.84;99504.88;343828;28;1099;-70
2022/06/21 00:03:22;;;;;;;2.45;1.40;;;;;;;15.40;60.62;99515.13;343250;28;1849;-69
2022/06/21 00:03:34;;;;;;;1.67;1.25;;;;;;;15.42;60.34;99511.47;342724;28;1761;-70
2022/06/21 00:03:48;;;;;;;1.35;1.10;;;;;;;15.41;60.57;99509.78;343309;28;1757;-70
2022/06/21 00:04:01;;;;;;;1.20;1.10;;;;;;;15.38;60.40;99510.78;345011;28;1129;-70
2022/06/21 00:04:14;;;;;;;1.27;1.17;;;;;;;15.35;60.33;99515.34;344866;28;1046;-70
2022/06/21 00:04:26;;;;;;;1.83;1.30;;;;;;;15.34;60.49;99509.28;343938;28;1177;-70
2022/06/21 00:04:39;;;;;;;2.13;1.30;;;;;;;15.36;60.15;99511.81;341922;28;1784;-69
2022/06/21 00:04:53;;;;;;;1.85;1.20;;;;;;;15.36;60.45;99506.56;342393;28;1809;-69
2022/06/21 00:05:12;;;;;;;2.03;1.20;;;;;;;15.36;60.84;99509.19;344517;28;1025;-69
2022/06/21 00:05:30;;;;;;;2.10;1.35;;;;;;;15.37;60.61;99514.34;344895;28;1129;-69
2022/06/21 00:05:45;;;;;;;1.80;1.30;;;;;;;15.31;60.36;99511.19;343644;28;1659;-69
2022/06/21 00:05:58;;;;;;;2.08;1.30;;;;;;;15.31;60.59;99508.59;342637;28;1095;-70
2022/06/21 00:06:13;;;;;;;1.85;1.30;;;;;;;15.32;60.49;99515.53;343246;28;1689;-70
2022/06/21 00:06:26;;;;;;;2.30;1.20;;;;;;;15.30;60.46;99513.00;343409;28;1322;-69
2022/06/21 00:06:38;;;;;;;3.00;1.33;;;;;;;15.29;60.53;99511.31;342938;28;2069;-69
2022/06/21 00:06:50;;;;;;;2.30;1.30;;;;;;;15.26;60.80;99508.84;343815;28;1886;-69
2022/06/21 00:07:05;;;;;;;1.83;1.20;;;;;;;15.26;60.91;99511.47;343753;28;1079;-69
2022/06/21 00:07:27;;;;;;;1.95;1.20;;;;;;;15.26;61.29;99515.88;343611;28;1720;-70
2022/06/21 00:07:39;;;;;;;3.58;1.30;;;;;;;15.26;61.01;99516.69;342874;28;1802;-69
2022/06/21 00:07:51;;;;;;;4.32;1.40;;;;;;;15.26;61.25;99515.88;344241;28;1936;-69
2022/06/21 00:08:12;;;;;;;3.25;1.27;;;;;;;15.27;60.91;99517.53;345036;28;1903;-69
2022/06/21 00:08:28;;;;;;;2.75;1.20;;;;;;;15.29;61.20;99515.69;343617;28;1009;-69
2022/06/21 00:08:41;;;;;;;1.48;1.38;;;;;;;15.29;61.26;99516.56;343383;28;1725;-69
2022/06/21 00:08:53;;;;;;;1.50;1.40;;;;;;;15.30;61.11;99513.00;344511;28;1047;-69
2022/06/21 00:09:05;;;;;;;2.20;1.40;;;;;;;15.30;61.06;99512.16;345120;28;1093;-69
2022/06/21 00:09:18;;;;;;;2.60;1.30;;;;;;;15.29;61.14;99507.81;344532;28;1226;-70
2022/06/21 00:09:29;;;;;;;1.95;1.27;;;;;;;15.31;61.05;99513.81;343264;28;1744;-70
2022/06/21 00:09:42;;;;;;;2.90;1.30;;;;;;;15.34;60.90;99513.66;343694;28;1653;-70
2022/06/21 00:09:55;;;;;;;2.90;1.30;;;;;;;15.35;60.74;99513.59;344793;28;1193;-70
2022/06/21 00:10:16;;;;;;;2.40;1.40;;;;;;;15.40;60.38;99515.94;345362;28;1066;-70
2022/06/21 00:10:34;;;;;;;1.83;1.30;;;;;;;15.42;60.08;99506.25;342044;28;1286;-71
2022/06/21 00:10:46;;;;;;;1.98;1.20;;;;;;;15.42;60.24;99514.09;343624;28;1816;-70
2022/06/21 00:10:59;;;;;;;1.90;1.30;;;;;;;15.42;60.21;99516.72;343677;28;1186;-69
2022/06/21 00:11:20;;;;;;;3.38;1.30;;;;;;;15.40;60.33;99513.34;343085;28;1644;-70
2022/06/21 00:11:34;;;;;;;2.70;1.40;;;;;;;15.39;60.01;99516.88;343003;28;1772;-69
2022/06/21 00:11:46;;;;;;;2.70;1.40;;;;;;;15.37;60.31;99510.88;343599;28;1781;-69
2022/06/21 00:11:58;;;;;;;2.55;1.30;;;;;;;15.35;60.79;99510.09;343719;28;1095;-69
2022/06/21 00:12:12;;;;;;;1.58;1.20;;;;;;;15.36;60.40;99512.66;343717;28;1323;-69
2022/06/21 00:12:24;;;;;;;1.55;1.20;;;;;;;15.35;60.47;99524.06;343665;28;1104;-69
2022/06/21 00:12:37;;;;;;;2.15;1.30;;;;;;;15.36;60.37;99512.66;340501;28;1879;-69
2022/06/21 00:12:49;;;;;;;2.00;1.40;;;;;;;15.36;60.72;99517.88;342323;28;1849;-69
2022/06/21 00:13:05;;;;;;;2.10;1.40;;;;;;;15.34;60.66;99513.66;342289;28;1175;-69
2022/06/21 00:13:30;;;;;;;1.85;1.40;;;;;;;15.34;60.57;99516.28;342018;28;1856;-69
2022/06/21 00:13:42;;;;;;;2.55;1.30;;;;;;;15.33;60.84;99511.97;341719;28;1627;-69
2022/06/21 00:13:54;;;;;;;3.05;1.30;;;;;;;15.31;60.85;99519.06;344103;28;1141;-69
2022/06/21 00:14:06;;;;;;;2.97;1.40;;;;;;;15.33;60.31;99522.44;344982;28;1095;-70
2022/06/21 00:14:18;;;;;;;2.78;1.40;;;;;;;15.32;60.35;99515.53;343505;28;1023;-69
2022/06/21 00:14:30;;;;;;;2.58;1.40;;;;;;;15.33;59.87;99522.44;342934;28;1767;-69
2022/06/21 00:14:43;;;;;;;2.60;1.40;;;;;;;15.34;59.74;99518.91;343040;28;1634;-69
2022/06/21 00:14:55;;;;;;;2.05;1.40;;;;;;;15.35;59.68;99515.34;343146;28;1937;-69
2022/06/21 00:15:07;;;;;;;2.13;1.40;;;;;;;15.36;59.62;99522.28;343710;28;1797;-69
2022/06/21 00:15:19;;;;;;;3.22;1.48;;;;;;;15.35;59.78;99513.59;344355;28;1271;-70
2022/06/21 00:15:31;;;;;;;3.58;1.40;;;;;;;15.35;59.81;99521.44;342238;28;1980;-70
2022/06/21 00:15:45;;;;;;;3.47;1.40;;;;;;;15.35;60.27;99525.81;343653;28;1825;-70
2022/06/21 00:16:01;;;;;;;2.88;1.50;;;;;;;15.35;60.22;99518.84;343715;28;1083;-70
2022/06/21 00:16:15;;;;;;;2.42;1.48;;;;;;;15.35;59.73;99520.59;343626;28;1082;-70
2022/06/21 00:16:30;;;;;;;2.00;1.40;;;;;;;15.36;59.71;99522.28;343721;28;1340;-70
2022/06/21 00:16:42;;;;;;;2.45;1.38;;;;;;;15.36;59.90;99522.28;342941;28;2200;-70
2022/06/21 00:16:54;;;;;;;2.20;1.30;;;;;;;15.35;59.80;99518.84;344537;28;1923;-70
2022/06/21 00:17:12;;;;;;;2.25;1.40;;;;;;;15.36;59.82;99524.91;345207;28;1034;-70
2022/06/21 00:17:27;;;;;;;1.87;1.40;;;;;;;15.35;60.03;99517.97;343170;28;1202;-70
2022/06/21 00:17:43;;;;;;;1.65;1.30;;;;;;;15.34;59.70;99518.91;343280;28;1667;-70
2022/06/21 00:17:55;;;;;;;2.85;1.45;;;;;;;15.31;59.79;99521.69;344966;28;1071;-70
2022/06/21 00:18:17;;;;;;;3.80;1.50;;;;;;;15.29;59.59;99520.91;344015;28;1616;-69
2022/06/21 00:18:32;;;;;;;2.30;1.35;;;;;;;15.30;59.53;99522.63;343474;28;1659;-69
2022/06/21 00:18:46;;;;;;;1.30;1.10;;;;;;;15.28;59.70;99514.00;343003;28;1597;-69
2022/06/21 00:18:59;;;;;;;1.40;1.10;;;;;;;15.27;59.69;99517.53;343286;28;1705;-69
2022/06/21 00:19:18;;;;;;;2.20;1.30;;;;;;;15.27;59.98;99518.41;343885;28;1227;-69
2022/06/21 00:19:30;;;;;;;2.08;1.30;;;;;;;15.27;59.96;99517.53;342909;28;1715;-69
2022/06/21 00:19:43;;;;;;;2.30;1.30;;;;;;;15.26;60.11;99516.69;343385;28;1649;-69
2022/06/21 00:19:55;;;;;;;2.30;1.30;;;;;;;15.26;60.05;99518.47;342272;28;1704;-69
2022/06/21 00:20:13;;;;;;;2.05;1.30;;;;;;;15.25;59.97;99515.03;344930;28;1294;-69
2022/06/21 00:20:25;;;;;;;2.00;1.50;;;;;;;15.24;60.18;99517.72;344627;28;1326;-69
2022/06/21 00:20:38;;;;;;;2.08;1.52;;;;;;;15.23;60.00;99522.13;342994;28;1849;-70
2022/06/21 00:20:50;;;;;;;1.83;1.50;;;;;;;15.22;60.43;99514.34;344065;28;1797;-70
2022/06/21 00:21:03;;;;;;;1.48;1.33;;;;;;;15.21;60.61;99518.72;344903;28;1101;-70
2022/06/21 00:21:17;;;;;;;5.10;1.50;;;;;;;15.20;60.67;99513.56;343746;28;1194;-69
2022/06/21 00:21:36;;;;;;;6.30;1.50;;;;;;;15.18;61.24;99527.59;342798;28;1752;-69
2022/06/21 00:21:49;;;;;;;3.00;1.50;;;;;;;15.15;61.57;99519.91;342875;28;1629;-70
2022/06/21 00:22:01;;;;;;;1.77;1.40;;;;;;;15.17;61.10;99523.28;343032;28;1055;-70
2022/06/21 00:22:16;;;;;;;1.40;1.30;;;;;;;15.16;61.16;99523.38;343557;28;1047;-70
2022/06/21 00:22:28;;;;;;;1.50;1.40;;;;;;;15.15;61.11;99524.28;343668;28;1268;-70
2022/06/21 00:22:40;;;;;;;1.50;1.40;;;;;;;15.15;61.35;99519.91;343384;28;1549;-70
2022/06/21 00:22:53;;;;;;;1.52;1.40;;;;;;;15.14;61.43;99523.44;344042;28;1111;-70
2022/06/21 00:23:06;;;;;;;1.55;1.30;;;;;;;15.14;61.57;99517.38;345213;28;1253;-70
2022/06/21 00:23:25;;;;;;;1.88;1.30;;;;;;;15.14;61.28;99519.97;345109;28;1182;-70
2022/06/21 00:23:37;;;;;;;1.67;1.25;;;;;;;15.17;61.48;99514.56;342760;28;2072;-70
2022/06/21 00:23:52;;;;;;;1.38;1.25;;;;;;;15.15;61.03;99519.91;342740;28;1521;-69
2022/06/21 00:24:05;;;;;;;1.90;1.33;;;;;;;15.15;60.69;99514.66;342579;28;1886;-69
2022/06/21 00:24:17;;;;;;;2.40;1.40;;;;;;;15.15;60.95;99525.16;343882;28;1876;-70
2022/06/21 00:24:29;;;;;;;3.00;1.40;;;;;;;15.16;61.05;99521.59;342931;28;1729;-70
2022/06/21 00:24:41;;;;;;;2.60;1.40;;;;;;;15.17;60.92;99511.94;343144;28;1765;-70
2022/06/21 00:24:54;;;;;;;2.95;1.33;;;;;;;15.15;60.61;99513.81;342594;28;1052;-70
2022/06/21 00:25:16;;;;;;;2.55;1.30;;;;;;;15.13;60.59;99521.75;343726;28;1318;-70
2022/06/21 00:25:28;;;;;;;1.42;1.30;;;;;;;15.13;60.30;99519.16;342668;28;1316;-70
2022/06/21 00:25:41;;;;;;;2.67;1.30;;;;;;;15.13;60.50;99521.75;343768;28;1555;-70
2022/06/21 00:25:54;;;;;;;3.10;1.40;;;;;;;15.14;60.59;99517.38;343691;28;1066;-70
2022/06/21 00:26:12;;;;;;;3.22;1.45;;;;;;;15.10;60.72;99516.69;343815;28;1102;-70
2022/06/21 00:26:26;;;;;;;2.17;1.30;;;;;;;15.10;60.88;99508.81;343016;28;1862;-70
2022/06/21 00:26:38;;;;;;;1.42;1.25;;;;;;;15.09;60.74;99520.25;342886;28;1975;-70
2022/06/21 00:26:50;;;;;;;2.70;1.30;;;;;;;15.07;60.86;99511.63;343057;28;1767;-70
2022/06/21 00:27:02;;;;;;;2.80;1.27;;;;;;;15.10;60.67;99514.06;344167;28;1409;-70
2022/06/21 00:27:20;;;;;;;2.38;1.30;;;;;;;15.12;60.45;99516.59;344981;28;1190;-70
2022/06/21 00:27:32;;;;;;;1.58;1.38;;;;;;;15.13;60.53;99516.53;344067;28;1761;-70
2022/06/21 00:27:44;;;;;;;2.15;1.40;;;;;;;15.12;60.76;99512.19;344795;28;1545;-70
2022/06/21 00:27:56;;;;;;;2.47;1.42;;;;;;;15.11;60.52;99513.16;343728;28;1319;-70
2022/06/21 00:28:08;;;;;;;2.58;1.45;;;;;;;15.14;60.71;99504.28;343817;28;1413;-70
2022/06/21 00:28:21;;;;;;;3.83;1.40;;;;;;;15.14;60.53;99502.50;343412;28;1044;-70
2022/06/21 00:28:33;;;;;;;3.70;1.45;;;;;;;15.15;60.34;99509.44;344189;28;2443;-69
2022/06/21 00:28:45;;;;;;;2.67;1.27;;;;;;;15.16;60.31;99502.41;344516;28;1795;-69
2022/06/21 00:28:57;;;;;;;1.90;1.20;;;;;;;15.15;60.15;99506.81;344840;28;1177;-70
2022/06/21 00:29:10;;;;;;;1.40;1.10;;;;;;;15.16;59.98;99507.66;346185;28;1290;-70
2022/06/21 00:29:22;;;;;;;1.42;1.15;;;;;;;15.17;59.95;99502.34;345288;28;1185;-69
2022/06/21 00:29:34;;;;;;;3.08;1.30;;;;;;;15.18;60.13;99508.41;342083;28;1887;-70
2022/06/21 00:29:46;;;;;;;3.50;1.30;;;;;;;15.16;59.72;99503.25;343402;28;1910;-70
2022/06/21 00:29:58;;;;;;;3.03;1.35;;;;;;;15.18;60.01;99511.03;342523;28;1047;-70
2022/06/21 00:30:11;;;;;;;2.97;1.50;;;;;;;15.17;59.95;99509.31;342749;28;1882;-70
2022/06/21 00:30:24;;;;;;;2.50;1.40;;;;;;;15.15;60.26;99504.19;345095;28;1851;-70
2022/06/21 00:30:36;;;;;;;2.58;1.50;;;;;;;15.14;60.74;99509.50;343702;28;1214;-70
2022/06/21 00:30:50;;;;;;;1.80;1.40;;;;;;;15.11;60.68;99510.53;344349;28;2553;-70
2022/06/21 00:31:02;;;;;;;1.50;1.38;;;;;;;15.12;61.07;99503.50;345154;28;1047;-70
2022/06/21 00:31:25;;;;;;;1.60;1.30;;;;;;;15.14;60.88;99507.72;344721;28;1198;-70
2022/06/21 00:31:44;;;;;;;1.83;1.27;;;;;;;15.11;61.33;99505.28;341775;28;1971;-70
2022/06/21 00:31:56;;;;;;;1.58;1.40;;;;;;;15.12;61.25;99508.75;343297;28;1603;-70
2022/06/21 00:32:19;;;;;;;1.50;1.35;;;;;;;15.09;61.08;99514.13;343682;28;1070;-70
2022/06/21 00:32:31;;;;;;;1.70;1.40;;;;;;;15.10;61.00;99500.97;343265;28;1347;-70
2022/06/21 00:32:45;;;;;;;2.10;1.50;;;;;;;15.09;61.05;99512.38;343375;28;1054;-70
2022/06/21 00:32:57;;;;;;;1.98;1.40;;;;;;;15.09;60.85;99503.66;343455;28;1055;-70
2022/06/21 00:33:14;;;;;;;1.50;1.40;;;;;;;15.09;60.54;99511.50;343839;28;1067;-70
2022/06/21 00:33:29;;;;;;;1.40;1.30;;;;;;;15.09;60.32;99501.91;343509;28;1285;-70
2022/06/21 00:33:41;;;;;;;1.50;1.20;;;;;;;15.07;59.98;99506.38;343093;28;1619;-70
2022/06/21 00:33:54;;;;;;;1.88;1.38;;;;;;;15.05;60.25;99508.25;343776;28;899;-70
2022/06/21 00:34:13;;;;;;;2.15;1.40;;;;;;;15.02;60.28;99502.31;343788;28;1076;-70
2022/06/21 00:34:25;;;;;;;3.08;1.60;;;;;;;14.98;60.51;99499.84;342836;28;1693;-70
2022/06/21 00:34:37;;;;;;;2.90;1.58;;;;;;;15.00;60.33;99499.78;342554;28;1549;-70
2022/06/21 00:34:49;;;;;;;2.22;1.48;;;;;;;15.01;60.64;99491.00;342258;28;1099;-70
2022/06/21 00:35:01;;;;;;;2.33;1.40;;;;;;;15.01;61.00;99506.72;342371;28;1102;-70
2022/06/21 00:35:18;;;;;;;2.20;1.40;;;;;;;14.98;61.09;99499.00;343531;28;1179;-70
2022/06/21 00:35:30;;;;;;;2.40;1.60;;;;;;;14.98;61.46;99502.47;343631;28;1362;-70
2022/06/21 00:35:46;;;;;;;2.88;1.58;;;;;;;14.97;61.11;99499.94;344024;28;1144;-70
2022/06/21 00:36:02;;;;;;;2.55;1.40;;;;;;;14.97;60.93;99505.19;343769;28;1055;-70
2022/06/21 00:36:24;;;;;;;1.80;1.40;;;;;;;14.98;61.01;99504.25;343714;28;989;-70
2022/06/21 00:36:37;;;;;;;3.03;1.40;;;;;;;14.97;61.18;99505.19;343752;28;1067;-70
2022/06/21 00:36:50;;;;;;;2.80;1.40;;;;;;;14.96;61.19;99509.56;343852;28;1257;-70
2022/06/21 00:37:02;;;;;;;1.80;1.40;;;;;;;14.97;61.33;99505.19;343563;28;1135;-69
2022/06/21 00:37:19;;;;;;;1.70;1.35;;;;;;;14.95;61.17;99507.00;343827;28;1088;-69
2022/06/21 00:37:31;;;;;;;2.17;1.50;;;;;;;14.95;61.00;99501.78;343596;28;1518;-69
2022/06/21 00:37:44;;;;;;;2.10;1.50;;;;;;;14.94;60.81;99500.94;343446;28;1322;-69
2022/06/21 00:37:56;;;;;;;2.28;1.50;;;;;;;14.96;60.65;99511.34;343575;28;1098;-69
2022/06/21 00:38:26;;;;;;;2.10;1.50;;;;;;;14.94;61.38;99506.16;343354;28;6349;-69
2022/06/21 00:38:38;;;;;;;2.50;1.40;;;;;;;14.94;61.05;99511.41;342728;28;1019;-69
2022/06/21 00:38:53;;;;;;;2.78;1.30;;;;;;;14.93;60.48;99508.88;342514;28;1119;-69
2022/06/21 00:39:06;;;;;;;2.63;1.40;;;;;;;14.94;60.70;99521.03;342528;28;1146;-70
2022/06/21 00:39:19;;;;;;;1.98;1.40;;;;;;;14.93;60.82;99507.13;342714;28;1633;-70
2022/06/21 00:39:31;;;;;;;2.33;1.40;;;;;;;14.96;60.78;99508.72;343740;28;1308;-70
2022/06/21 00:39:43;;;;;;;2.40;1.38;;;;;;;14.97;60.37;99510.41;343970;28;1163;-70
2022/06/21 00:39:55;;;;;;;3.35;1.30;;;;;;;14.98;60.43;99514.72;343457;28;1853;-70
2022/06/21 00:40:24;;;;;;;2.85;1.38;;;;;;;14.92;59.97;99512.41;344033;28;1284;-70
2022/06/21 00:40:36;;;;;;;2.67;1.45;;;;;;;14.91;59.89;99515.94;342375;28;1885;-70
2022/06/21 00:40:48;;;;;;;3.45;1.33;;;;;;;14.93;60.02;99521.94;344160;28;1831;-70
2022/06/21 00:41:06;;;;;;;2.58;1.20;;;;;;;14.94;60.28;99526.28;345040;28;1042;-70
2022/06/21 00:41:21;;;;;;;1.55;1.27;;;;;;;14.95;60.25;99522.72;343028;28;1895;-70
2022/06/21 00:41:54;;;;;;;1.50;1.40;;;;;;;14.92;59.96;99522.88;343064;28;1154;-70
2022/06/21 00:42:21;;;;;;;2.65;1.40;;;;;;;14.91;59.92;99521.19;340944;29;1335;-70
2022/06/21 00:42:37;;;;;;;1.40;1.30;;;;;;;14.92;59.98;99522.88;340834;28;1811;-69
2022/06/21 00:42:58;;;;;;;2.30;1.40;;;;;;;14.91;59.87;99526.41;342535;28;1688;-70
2022/06/21 00:43:18;;;;;;;1.83;1.50;;;;;;;14.89;59.87;99528.28;343408;28;1060;-70
2022/06/21 00:43:35;;;;;;;1.85;1.45;;;;;;;14.90;59.95;99524.75;342529;28;1681;-70
2022/06/21 00:43:51;;;;;;;2.03;1.50;;;;;;;14.88;60.09;99518.75;342279;28;1048;-70
2022/06/21 00:44:05;;;;;;;1.60;1.40;;;;;;;14.88;60.14;99523.97;345081;28;999;-70
2022/06/21 00:44:39;;;;;;;2.72;1.42;;;;;;;14.89;60.37;99523.03;346089;28;1022;-70
2022/06/21 00:45:01;;;;;;;1.67;1.20;;;;;;;14.88;60.44;99521.38;344257;28;1838;-70
2022/06/21 00:45:25;;;;;;;2.92;1.40;;;;;;;14.86;60.74;99523.22;344157;28;1782;-69
2022/06/21 00:45:43;;;;;;;2.05;1.42;;;;;;;14.82;60.94;99516.44;342860;28;1925;-70
2022/06/21 00:45:55;;;;;;;2.05;1.40;;;;;;;14.83;60.86;99523.34;342280;28;1015;-70
2022/06/21 00:46:25;;;;;;;2.08;1.52;;;;;;;14.82;61.37;99521.69;342154;28;1052;-70
2022/06/21 00:46:45;;;;;;;3.20;1.67;;;;;;;14.80;61.19;99515.69;342543;28;2126;-70
2022/06/21 00:47:16;;;;;;;2.60;1.60;;;;;;;14.71;61.87;99523.09;343449;28;1050;-70
2022/06/21 00:47:35;;;;;;;1.70;1.60;;;;;;;14.72;61.73;99522.16;341931;28;1593;-70
2022/06/21 00:47:58;;;;;;;1.60;1.50;;;;;;;14.76;61.17;99518.44;343793;28;1824;-70
2022/06/21 00:48:23;;;;;;;3.03;1.40;;;;;;;14.74;61.09;99517.69;345833;28;1671;-70
2022/06/21 00:48:41;;;;;;;2.10;1.60;;;;;;;14.77;61.21;99519.31;343948;28;2110;-70
2022/06/21 00:48:54;;;;;;;1.67;1.58;;;;;;;14.76;61.36;99522.84;343416;28;1161;-70
2022/06/21 00:49:16;;;;;;;1.67;1.58;;;;;;;14.75;61.06;99516.78;342332;28;1019;-70
2022/06/21 00:49:35;;;;;;;2.15;1.50;;;;;;;14.73;61.29;99521.25;342775;28;1727;-70
2022/06/21 00:49:55;;;;;;;2.90;1.50;;;;;;;14.71;61.54;99525.72;342045;28;1684;-70
2022/06/21 00:50:23;;;;;;;3.60;1.55;;;;;;;14.69;61.93;99517.09;343744;28;1737;-70
2022/06/21 00:50:41;;;;;;;2.58;1.58;;;;;;;14.67;61.59;99518.94;343105;28;2026;-69
2022/06/21 00:51:11;;;;;;;2.70;1.55;;;;;;;14.66;61.59;99516.41;344564;28;1154;-70
2022/06/21 00:51:33;;;;;;;1.67;1.45;;;;;;;14.67;61.75;99528.53;345015;28;1291;-70
2022/06/21 00:51:45;;;;;;;2.08;1.52;;;;;;;14.65;62.13;99520.78;343281;28;1716;-70
2022/06/21 00:52:07;;;;;;;2.15;1.60;;;;;;;14.66;62.66;99525.09;343545;28;2211;-70
2022/06/21 00:52:27;;;;;;;2.50;1.48;;;;;;;14.67;62.21;99524.19;342061;28;2515;-70
2022/06/21 00:52:51;;;;;;;3.05;1.40;;;;;;;14.72;62.06;99527.38;342992;28;1870;-70
2022/06/21 00:53:24;;;;;;;1.73;1.30;;;;;;;14.75;62.08;99527.25;343881;28;1193;-69
2022/06/21 00:53:42;;;;;;;3.35;1.45;;;;;;;14.75;61.95;99526.41;342735;28;1765;-70
2022/06/21 00:54:05;;;;;;;2.50;1.50;;;;;;;14.71;61.63;99524.88;343994;28;1715;-70
2022/06/21 00:54:32;;;;;;;1.70;1.48;;;;;;;14.67;61.83;99518.94;342439;28;1865;-70
2022/06/21 00:54:56;;;;;;;1.70;1.40;;;;;;;14.68;61.68;99523.22;343174;28;1247;-70
2022/06/21 00:55:17;;;;;;;2.03;1.40;;;;;;;14.70;61.11;99524.00;342445;28;1027;-70
2022/06/21 00:55:42;;;;;;;1.90;1.30;;;;;;;14.70;61.41;99521.38;342879;28;1254;-69
2022/06/21 00:56:07;;;;;;;2.17;1.50;;;;;;;14.70;61.38;99517.94;343911;28;1666;-70
2022/06/21 00:56:28;;;;;;;2.10;1.50;;;;;;;14.66;61.92;99524.25;343118;28;1250;-70
2022/06/21 00:56:47;;;;;;;1.80;1.42;;;;;;;14.65;61.72;99515.56;342978;28;2092;-70
2022/06/21 00:57:10;;;;;;;1.42;1.33;;;;;;;14.61;62.39;99518.38;342349;28;1044;-70
2022/06/21 00:57:31;;;;;;;2.45;1.50;;;;;;;14.60;62.24;99514.94;342481;28;1744;-69
2022/06/21 00:57:50;;;;;;;4.32;1.58;;;;;;;14.57;62.62;99515.13;343672;28;1814;-69
2022/06/21 00:58:03;;;;;;;3.67;1.58;;;;;;;14.59;62.72;99513.25;342467;28;1192;-69
2022/06/21 00:58:20;;;;;;;2.70;1.60;;;;;;;14.58;62.79;99509.78;342534;28;1125;-69
2022/06/21 00:58:32;;;;;;;2.63;1.60;;;;;;;14.60;62.76;99512.31;343071;28;2062;-70
2022/06/21 00:58:44;;;;;;;3.72;1.50;;;;;;;14.58;62.99;99515.00;343666;28;1861;-70
2022/06/21 00:58:56;;;;;;;3.78;1.40;;;;;;;14.58;63.01;99514.16;343798;28;1066;-70
2022/06/21 00:59:21;;;;;;;2.65;1.50;;;;;;;14.61;62.81;99514.03;345134;28;1618;-69
2022/06/21 00:59:34;;;;;;;4.20;1.50;;;;;;;14.60;62.92;99512.31;343061;28;1693;-69
2022/06/21 00:59:50;;;;;;;4.25;1.40;;;;;;;14.59;62.13;99510.66;343609;28;1090;-69
2022/06/21 01:00:29;;;;;;;1.67;1.42;;;;;;;14.62;62.25;99510.47;341716;28;1848;-69
2022/06/21 01:00:54;;;;;;;2.97;1.48;;;;;;;14.62;62.24;99510.47;343069;28;1605;-69
2022/06/21 01:01:15;;;;;;;2.03;1.50;;;;;;;14.62;62.67;99510.47;343014;28;1731;-69
2022/06/21 01:01:29;;;;;;;2.15;1.52;;;;;;;14.63;62.55;99512.19;343334;28;1490;-69
2022/06/21 01:01:42;;;;;;;2.47;1.60;;;;;;;14.62;62.35;99502.63;343796;28;965;-69
2022/06/21 01:02:02;;;;;;;2.35;1.60;;;;;;;14.64;62.09;99508.63;343900;28;1102;-69
2022/06/21 01:02:24;;;;;;;4.07;1.50;;;;;;;14.67;61.52;99502.38;343652;28;1414;-69
2022/06/21 01:02:37;;;;;;;2.97;1.40;;;;;;;14.67;61.59;99503.25;341980;28;1977;-69
2022/06/21 01:02:49;;;;;;;2.22;1.45;;;;;;;14.66;62.07;99498.09;343674;28;1794;-69
2022/06/21 01:03:06;;;;;;;3.47;1.50;;;;;;;14.67;61.59;99507.59;344981;28;1071;-69
2022/06/21 01:03:24;;;;;;;3.45;1.50;;;;;;;14.66;61.54;99504.16;344972;28;1208;-69
2022/06/21 01:03:40;;;;;;;2.13;1.45;;;;;;;14.67;62.06;99502.38;342449;28;1838;-70
2022/06/21 01:03:56;;;;;;;2.25;1.50;;;;;;;14.64;62.28;99503.38;344052;28;1757;-70
2022/06/21 01:04:15;;;;;;;2.05;1.48;;;;;;;14.66;61.66;99506.78;344895;28;1050;-70
2022/06/21 01:04:27;;;;;;;1.67;1.33;;;;;;;14.65;61.74;99507.72;343913;28;1240;-70
2022/06/21 01:04:45;;;;;;;2.10;1.40;;;;;;;14.65;62.04;99507.72;342246;28;1914;-70
2022/06/21 01:04:59;;;;;;;1.90;1.38;;;;;;;14.67;61.87;99508.47;343468;28;2200;-69
2022/06/21 01:05:11;;;;;;;1.55;1.30;;;;;;;14.69;61.96;99511.88;345132;28;1078;-69
2022/06/21 01:05:29;;;;;;;2.00;1.38;;;;;;;14.67;62.23;99508.47;343453;28;2120;-69
2022/06/21 01:05:44;;;;;;;2.40;1.50;;;;;;;14.68;62.25;99507.53;343489;28;1457;-69
2022/06/21 01:06:01;;;;;;;2.45;1.52;;;;;;;14.68;62.50;99510.16;343848;28;1084;-69
2022/06/21 01:06:23;;;;;;;2.20;1.40;;;;;;;14.68;62.70;99510.16;343599;28;1300;-69
2022/06/21 01:06:43;;;;;;;1.73;1.30;;;;;;;14.70;62.09;99508.31;343174;28;2071;-69
2022/06/21 01:06:59;;;;;;;2.50;1.40;;;;;;;14.70;62.43;99513.53;343472;28;1744;-69
2022/06/21 01:07:12;;;;;;;2.25;1.42;;;;;;;14.72;62.51;99509.06;343668;28;1506;-69
2022/06/21 01:07:24;;;;;;;2.40;1.40;;;;;;;14.72;61.91;99511.69;342663;28;1284;-69
2022/06/21 01:07:36;;;;;;;2.55;1.50;;;;;;;14.69;61.85;99506.63;342868;28;1795;-70
2022/06/21 01:07:51;;;;;;;2.67;1.60;;;;;;;14.69;61.90;99511.00;343551;28;1661;-70
2022/06/21 01:08:04;;;;;;;2.40;1.53;;;;;;;14.68;62.10;99510.16;343767;28;1155;-69
2022/06/21 01:08:21;;;;;;;2.47;1.45;;;;;;;14.68;62.01;99511.94;343157;28;1779;-69
2022/06/21 01:08:38;;;;;;;1.73;1.40;;;;;;;14.68;62.21;99512.78;343329;28;1355;-69
2022/06/21 01:08:59;;;;;;;1.48;1.38;;;;;;;14.65;62.11;99510.34;344090;28;1015;-69
2022/06/21 01:09:29;;;;;;;2.60;1.40;;;;;;;14.68;61.36;99504.09;345173;28;1157;-69
2022/06/21 01:09:54;;;;;;;2.92;1.30;;;;;;;14.71;61.14;99510.00;343200;28;1434;-69
2022/06/21 01:10:09;;;;;;;1.85;1.50;;;;;;;14.71;61.14;99507.41;343660;28;1063;-69
2022/06/21 01:10:23;;;;;;;2.10;1.40;;;;;;;14.72;61.14;99509.06;345004;28;1617;-69
2022/06/21 01:10:35;;;;;;;2.58;1.40;;;;;;;14.71;60.94;99504.78;342296;28;2082;-69
2022/06/21 01:10:51;;;;;;;2.35;1.55;;;;;;;14.70;60.69;99502.22;343734;28;1773;-69
2022/06/21 01:11:10;;;;;;;2.88;1.60;;;;;;;14.72;60.47;99509.06;342369;28;1043;-69
2022/06/21 01:11:30;;;;;;;2.72;1.60;;;;;;;14.63;60.50;99506.94;343705;28;1314;-69
2022/06/21 01:11:46;;;;;;;2.53;1.45;;;;;;;14.62;60.39;99505.25;343596;28;1627;-69
2022/06/21 01:12:15;;;;;;;2.13;1.40;;;;;;;14.60;60.76;99501.84;343620;28;1275;-69
2022/06/21 01:12:29;;;;;;;2.78;1.42;;;;;;;14.55;61.36;99499.47;343399;28;1211;-70
2022/06/21 01:12:43;;;;;;;1.35;1.25;;;;;;;14.53;61.74;99496.06;342096;28;938;-70
2022/06/21 01:13:04;;;;;;;1.42;1.30;;;;;;;14.54;62.03;99507.38;343707;28;1238;-70
2022/06/21 01:13:22;;;;;;;2.50;1.50;;;;;;;14.53;61.68;99503.09;343683;28;1228;-70
2022/06/21 01:13:41;;;;;;;1.55;1.33;;;;;;;14.51;61.70;99503.16;342279;28;1908;-70
2022/06/21 01:13:55;;;;;;;1.65;1.40;;;;;;;14.49;61.82;99499.78;343694;28;2108;-70
2022/06/21 01:14:09;;;;;;;1.90;1.42;;;;;;;14.48;61.92;99502.47;343588;28;915;-70
2022/06/21 01:14:24;;;;;;;2.00;1.50;;;;;;;14.51;61.60;99507.53;342567;28;1078;-70
2022/06/21 01:14:41;;;;;;;2.25;1.50;;;;;;;14.51;61.46;99504.94;342236;28;1858;-70
2022/06/21 01:14:58;;;;;;;2.10;1.50;;;;;;;14.51;61.69;99502.31;343397;28;1424;-70
2022/06/21 01:15:18;;;;;;;1.75;1.50;;;;;;;14.51;61.57;99494.47;342443;28;1845;-70
2022/06/21 01:15:37;;;;;;;2.78;1.42;;;;;;;14.52;61.69;99501.38;343733;28;1356;-69
2022/06/21 01:15:50;;;;;;;1.50;1.40;;;;;;;14.53;61.46;99497.84;343125;28;1436;-69
2022/06/21 01:16:04;;;;;;;1.60;1.38;;;;;;;14.47;61.59;99498.16;343657;28;999;-69
2022/06/21 01:16:18;;;;;;;1.67;1.40;;;;;;;14.50;61.87;99503.22;343592;28;1028;-69
2022/06/21 01:16:33;;;;;;;2.10;1.40;;;;;;;14.49;61.89;99493.69;343500;28;1684;-69
2022/06/21 01:16:45;;;;;;;3.08;1.50;;;;;;;14.47;62.13;99495.56;343194;28;1850;-70
2022/06/21 01:16:58;;;;;;;2.90;1.50;;;;;;;14.48;62.21;99498.06;343870;28;863;-70
2022/06/21 01:17:12;;;;;;;2.60;1.40;;;;;;;14.48;62.30;99498.06;343662;28;1693;-70